createdAt,value
2023-04-13T00:00:54.646Z,95558.84
2023-04-13T00:03:22.835Z,95572.13
2023-04-13T00:05:52.229Z,95594.78
2023-04-13T00:08:22.757Z,95581.72
2023-04-13T00:10:51.128Z,95594.44
2023-04-13T00:13:19.735Z,95596.16
2023-04-13T00:15:49.161Z,95587.75
2023-04-13T00:18:17.424Z,95553.53
2023-04-13T00:20:46.609Z,95584.72
2023-04-13T00:23:14.542Z,95571.22
2023-04-13T00:25:42.476Z,95569.72
2023-04-13T00:29:11.163Z,95592.81
2023-04-13T00:31:40.340Z,95568.56
2023-04-13T00:34:08.251Z,95568.19
2023-04-13T00:36:36.052Z,95553.06
2023-04-13T00:39:03.905Z,95562.06
2023-04-13T00:41:32.166Z,95569.00
2023-04-13T00:44:00.882Z,95575.38
2023-04-13T00:46:29.722Z,95573.31
2023-04-13T00:49:01.895Z,95579.19
2023-04-13T00:51:30.759Z,95557.13
2023-04-13T00:53:59.391Z,95560.81
2023-04-13T00:56:28.286Z,95558.03
2023-04-13T00:58:57.818Z,95547.31
2023-04-13T01:01:26.056Z,95558.53
2023-04-13T01:03:53.937Z,95502.59
2023-04-13T01:06:27.967Z,95546.38
2023-04-13T01:09:02.634Z,95556.66
2023-04-13T01:11:39.481Z,95559.22
2023-04-13T01:14:14.373Z,95548.69
2023-04-13T01:16:45.832Z,95568.78
2023-04-13T01:19:26.412Z,95565.53
2023-04-13T01:21:56.595Z,95557.28
2023-04-13T01:24:34.063Z,95575.75
2023-04-13T01:27:11.541Z,95556.41
2023-04-13T01:29:41.461Z,95580.22
2023-04-13T01:32:11.247Z,95569.28
2023-04-13T01:34:39.479Z,95580.03
2023-04-13T01:37:07.730Z,95571.97
2023-04-13T01:39:37.455Z,95573.47
2023-04-13T01:42:05.296Z,95567.81
2023-04-13T01:44:35.923Z,95574.19
2023-04-13T01:47:16.437Z,95576.72
2023-04-13T01:49:52.518Z,95574.97
2023-04-13T01:52:21.239Z,95579.13
2023-04-13T01:54:52.219Z,95569.69
2023-04-13T01:57:20.994Z,95588.25
2023-04-13T01:59:48.707Z,95562.59
2023-04-13T02:02:17.983Z,95572.09
2023-04-13T02:04:45.799Z,95552.25
2023-04-13T02:07:13.766Z,95576.28
2023-04-13T02:09:41.561Z,95572.72
2023-04-13T02:12:09.667Z,95558.13
2023-04-13T02:14:37.592Z,95575.00
2023-04-13T02:17:05.742Z,95559.06
2023-04-13T02:19:35.088Z,95565.56
2023-04-13T02:22:02.827Z,95562.78
2023-04-13T02:24:33.024Z,95570.97
2023-04-13T02:27:02.080Z,95570.38
2023-04-13T02:29:30.110Z,95564.28
2023-04-13T02:31:58.064Z,95565.97
2023-04-13T02:34:27.462Z,95557.00
2023-04-13T02:36:56.847Z,95553.78
2023-04-13T02:39:24.929Z,95561.97
2023-04-13T02:41:52.674Z,95552.97
2023-04-13T02:44:20.923Z,95551.78
2023-04-13T02:46:48.730Z,95574.19
2023-04-13T02:49:16.591Z,95558.00
2023-04-13T02:51:44.351Z,95570.94
2023-04-13T02:54:13.543Z,95561.03
2023-04-13T02:56:41.286Z,95572.81
2023-04-13T02:59:09.100Z,95557.22
2023-04-13T03:01:37.194Z,95561.16
2023-04-13T03:04:05.260Z,95565.88
2023-04-13T03:06:33.419Z,95564.06
2023-04-13T03:09:01.661Z,95561.81
2023-04-13T03:11:30.809Z,95565.16
2023-04-13T03:14:01.330Z,95566.19
2023-04-13T03:16:29.633Z,95563.91
2023-04-13T03:18:58.110Z,95564.84
2023-04-13T03:21:25.900Z,95560.06
2023-04-13T03:23:53.735Z,95562.25
2023-04-13T03:26:21.819Z,95557.66
2023-04-13T03:28:50.987Z,95572.97
2023-04-13T03:31:19.101Z,95565.16
2023-04-13T03:33:46.968Z,95558.94
2023-04-13T03:36:15.623Z,95571.06
2023-04-13T03:38:43.426Z,95554.00
2023-04-13T03:41:11.638Z,95564.06
2023-04-13T03:43:39.578Z,95558.50
2023-04-13T03:46:09.690Z,95554.22
2023-04-13T03:48:37.577Z,95555.00
2023-04-13T03:51:05.475Z,95554.56
2023-04-13T03:53:34.234Z,95538.97
2023-04-13T03:56:02.211Z,95554.09
2023-04-13T03:58:29.982Z,95553.63
2023-04-13T04:00:57.977Z,95548.44
2023-04-13T04:03:27.254Z,95557.88
2023-04-13T04:05:55.150Z,95551.88
2023-04-13T04:08:22.918Z,95556.19
2023-04-13T04:10:50.630Z,95543.84
2023-04-13T04:13:18.353Z,95543.56
2023-04-13T04:15:46.137Z,95552.00
2023-04-13T04:18:13.913Z,95544.59
2023-04-13T04:20:43.103Z,95549.84
2023-04-13T04:23:12.522Z,95551.38
2023-04-13T04:25:40.709Z,95556.78
2023-04-13T04:28:08.883Z,95563.81
2023-04-13T04:30:37.130Z,95548.19
2023-04-13T04:33:04.953Z,95565.75
2023-04-13T04:35:35.910Z,95571.13
2023-04-13T04:38:05.611Z,95574.19
2023-04-13T04:40:35.710Z,95576.81
2023-04-13T04:43:04.923Z,95571.56
2023-04-13T04:45:33.100Z,95575.03
2023-04-13T04:48:03.190Z,95582.38
2023-04-13T04:50:31.112Z,95587.69
2023-04-13T04:52:59.036Z,95596.31
2023-04-13T04:55:28.164Z,95608.31
2023-04-13T04:57:56.144Z,95606.97
2023-04-13T05:00:26.390Z,95610.66
2023-04-13T05:02:54.579Z,95616.69
2023-04-13T05:05:22.639Z,95617.88
2023-04-13T05:07:50.693Z,95621.69
2023-04-13T05:10:18.447Z,95632.53
2023-04-13T05:12:47.821Z,95634.88
2023-04-13T05:15:15.641Z,95625.72
2023-04-13T05:17:46.912Z,95626.22
2023-04-13T05:20:14.856Z,95625.81
2023-04-13T05:22:43.696Z,95608.34
2023-04-13T05:25:12.233Z,95636.28
2023-04-13T05:27:40.028Z,95627.44
2023-04-13T05:30:10.596Z,95627.47
2023-04-13T05:32:38.396Z,95632.25
2023-04-13T05:35:07.817Z,95620.75
2023-04-13T05:37:35.622Z,95633.13
2023-04-13T05:40:08.314Z,95635.22
2023-04-13T05:42:36.298Z,95638.56
2023-04-13T05:45:09.639Z,95645.06
2023-04-13T05:47:40.076Z,95649.84
2023-04-13T05:50:09.735Z,95648.31
2023-04-13T05:52:37.463Z,95640.41
2023-04-13T05:55:06.865Z,95641.00
2023-04-13T05:57:35.079Z,95636.59
2023-04-13T06:00:03.307Z,95638.22
2023-04-13T06:02:32.142Z,95642.63
2023-04-13T06:05:02.022Z,95643.06
2023-04-13T06:07:29.875Z,95642.25
2023-04-13T06:09:57.623Z,95639.00
2023-04-13T06:12:25.860Z,95631.81
2023-04-13T06:14:53.597Z,95643.16
2023-04-13T06:17:21.486Z,95640.13
2023-04-13T06:19:49.304Z,95625.59
2023-04-13T06:22:18.476Z,95633.91
2023-04-13T06:24:46.206Z,95629.88
2023-04-13T06:27:14.173Z,95623.84
2023-04-13T06:29:42.400Z,95625.25
2023-04-13T06:32:10.214Z,95630.38
2023-04-13T06:34:37.926Z,95632.09
2023-04-13T06:37:06.022Z,95609.91
2023-04-13T06:39:37.791Z,95627.13
2023-04-13T06:42:06.444Z,95599.69
2023-04-13T06:44:34.228Z,95632.53
2023-04-13T06:47:01.997Z,95618.13
2023-04-13T06:49:30.360Z,95612.81
2023-04-13T06:51:58.133Z,95612.44
2023-04-13T06:54:26.065Z,95613.75
2023-04-13T06:56:55.164Z,95610.66
2023-04-13T06:59:22.852Z,95615.47
2023-04-13T07:01:51.236Z,95605.88
2023-04-13T07:04:19.679Z,95604.09
2023-04-13T07:06:47.890Z,95605.56
2023-04-13T07:09:16.193Z,95606.84
2023-04-13T07:11:43.906Z,95586.31
2023-04-13T07:14:12.982Z,95610.69
2023-04-13T07:16:41.100Z,95615.16
2023-04-13T07:19:08.866Z,95612.28
2023-04-13T07:21:36.643Z,95601.63
2023-04-13T07:24:04.828Z,95605.09
2023-04-13T07:26:32.822Z,95613.19
2023-04-13T07:29:00.651Z,95624.56
2023-04-13T07:31:30.387Z,95614.38
2023-04-13T07:33:58.145Z,95620.22
2023-04-13T07:36:26.469Z,95619.97
2023-04-13T07:38:54.255Z,95623.81
2023-04-13T07:41:22.649Z,95626.22
2023-04-13T07:43:51.252Z,95635.59
2023-04-13T07:46:20.496Z,95623.81
2023-04-13T07:48:49.606Z,95628.09
2023-04-13T07:51:18.023Z,95635.28
2023-04-13T07:53:45.890Z,95632.00
2023-04-13T07:56:13.589Z,95633.06
2023-04-13T07:58:41.715Z,95627.25
2023-04-13T08:01:09.655Z,95628.75
2023-04-13T08:03:38.122Z,95632.56
2023-04-13T08:06:09.697Z,95622.97
2023-04-13T08:08:37.487Z,95628.69
2023-04-13T08:11:05.460Z,95632.41
2023-04-13T08:13:33.277Z,95642.44
2023-04-13T08:16:01.050Z,95645.88
2023-04-13T08:18:29.800Z,95646.16
2023-04-13T08:20:57.727Z,95650.75
2023-04-13T08:23:27.535Z,95645.50
2023-04-13T08:25:55.512Z,95636.53
2023-04-13T08:28:23.283Z,95647.81
2023-04-13T08:30:51.085Z,95633.31
2023-04-13T08:33:18.790Z,95641.88
2023-04-13T08:35:46.499Z,95646.03
2023-04-13T08:38:14.267Z,95647.25
2023-04-13T08:40:43.488Z,95637.84
2023-04-13T08:43:11.522Z,95633.03
2023-04-13T08:45:42.265Z,95628.75
2023-04-13T08:48:11.802Z,95645.22
2023-04-13T08:50:40.076Z,95648.56
2023-04-13T08:53:08.271Z,95643.41
2023-04-13T08:55:36.021Z,95644.19
2023-04-13T08:58:06.510Z,95639.03
2023-04-13T09:00:34.258Z,95632.41
2023-04-13T09:03:09.051Z,95625.59
2023-04-13T09:05:41.313Z,95642.47
2023-04-13T09:08:11.828Z,95638.97
2023-04-13T09:10:40.642Z,95632.16
2023-04-13T09:13:09.930Z,95639.69
2023-04-13T09:15:37.727Z,95634.69
2023-04-13T09:18:09.990Z,95643.06
2023-04-13T09:20:38.487Z,95634.75
2023-04-13T09:23:14.696Z,95631.81
2023-04-13T09:25:42.617Z,95635.97
2023-04-13T09:28:18.765Z,95634.75
2023-04-13T09:30:47.132Z,95626.22
2023-04-13T09:33:16.963Z,95635.44
2023-04-13T09:35:44.678Z,95633.78
2023-04-13T09:38:15.472Z,95635.66
2023-04-13T09:40:49.987Z,95625.28
2023-04-13T09:43:19.515Z,95618.75
2023-04-13T09:45:47.406Z,95626.91
2023-04-13T09:48:20.647Z,95628.53
2023-04-13T09:50:59.488Z,95615.72
2023-04-13T09:53:29.263Z,95631.00
2023-04-13T09:56:01.135Z,95619.94
2023-04-13T09:58:31.215Z,95625.88
2023-04-13T10:00:59.482Z,95632.19
2023-04-13T10:03:28.515Z,95626.38
2023-04-13T10:06:00.481Z,95624.34
2023-04-13T10:11:02.405Z,95614.69
2023-04-13T10:13:36.808Z,95600.81
2023-04-13T10:16:28.176Z,95598.00
2023-04-13T10:19:01.791Z,95590.38
2023-04-13T10:21:33.756Z,95585.94
2023-04-13T10:24:02.022Z,95590.69
2023-04-13T10:26:33.564Z,95587.66
2023-04-13T10:29:03.801Z,95576.50
2023-04-13T10:31:39.522Z,95579.13
2023-04-13T10:34:07.663Z,95581.81
2023-04-13T10:36:39.868Z,95581.41
2023-04-13T10:39:08.346Z,95573.25
2023-04-13T10:41:36.613Z,95559.28
2023-04-13T10:44:07.085Z,95560.75
2023-04-13T10:46:35.670Z,95561.97
2023-04-13T10:49:05.279Z,95560.47
2023-04-13T10:51:42.566Z,95558.59
2023-04-13T10:54:11.909Z,95561.53
2023-04-13T10:56:40.183Z,95545.97
2023-04-13T10:59:09.574Z,95546.00
2023-04-13T11:01:41.290Z,95534.31
2023-04-13T11:04:13.842Z,95537.38
2023-04-13T11:06:44.897Z,95540.06
2023-04-13T11:09:16.000Z,95537.91
2023-04-13T11:11:44.438Z,95537.66
2023-04-13T11:14:22.034Z,95526.09
2023-04-13T11:16:50.362Z,95538.41
2023-04-13T11:19:18.947Z,95536.13
2023-04-13T11:21:48.874Z,95538.38
2023-04-13T11:24:25.665Z,95532.81
2023-04-13T11:26:54.353Z,95539.09
2023-04-13T11:29:23.501Z,95540.25
2023-04-13T11:31:51.995Z,95537.31
2023-04-13T11:34:28.679Z,95531.53
2023-04-13T11:37:05.687Z,95530.59
2023-04-13T11:39:36.334Z,95524.94
2023-04-13T11:42:08.105Z,95515.28
2023-04-13T11:44:38.752Z,95516.19
2023-04-13T11:47:08.684Z,95522.56
2023-04-13T11:49:36.882Z,95473.88
2023-04-13T11:52:04.870Z,95510.97
2023-04-13T11:54:33.390Z,95514.50
2023-04-13T11:57:01.852Z,95519.50
2023-04-13T11:59:29.869Z,95511.31
2023-04-13T12:02:03.826Z,95517.91
2023-04-13T12:04:38.891Z,95518.19
2023-04-13T12:07:14.031Z,95512.09
2023-04-13T12:09:56.409Z,95511.53
2023-04-13T12:15:13.779Z,95535.09
2023-04-13T12:17:49.955Z,95531.44
2023-04-13T12:20:20.710Z,95533.66
2023-04-13T12:22:57.614Z,95533.00
2023-04-13T12:28:01.703Z,95529.25
2023-04-13T12:30:29.550Z,95514.06
2023-04-13T12:32:58.710Z,95558.38
2023-04-13T12:35:26.579Z,95548.88
2023-04-13T12:37:54.385Z,95555.91
2023-04-13T12:40:22.528Z,95549.69
2023-04-13T12:42:50.809Z,95557.53
2023-04-13T12:45:18.533Z,95557.53
2023-04-13T12:47:46.287Z,95560.47
2023-04-13T12:50:15.670Z,95551.63
2023-04-13T12:52:44.485Z,95548.66
2023-04-13T12:55:12.318Z,95555.63
2023-04-13T12:57:40.564Z,95547.47
2023-04-13T13:00:10.710Z,95539.50
2023-04-13T13:02:38.744Z,95555.88
2023-04-13T13:05:09.322Z,95554.56
2023-04-13T13:07:38.618Z,95552.03
2023-04-13T13:10:14.919Z,95547.00
2023-04-13T13:12:49.879Z,95539.84
2023-04-13T13:15:18.011Z,95552.06
2023-04-13T13:17:45.824Z,95550.19
2023-04-13T13:20:14.534Z,95544.47
2023-04-13T13:22:44.180Z,95532.47
2023-04-13T13:25:12.117Z,95527.38
2023-04-13T13:28:10.478Z,95522.25
2023-04-13T13:30:28.081Z,95520.47
2023-04-13T13:32:56.028Z,95522.91
2023-04-13T13:35:24.025Z,95521.28
2023-04-13T13:37:53.156Z,95519.69
2023-04-13T13:40:21.239Z,95520.19
2023-04-13T13:42:52.380Z,95525.59
2023-04-13T13:45:21.712Z,95528.53
2023-04-13T13:47:53.710Z,95526.56
2023-04-13T13:50:22.384Z,95525.56
2023-04-13T13:53:01.709Z,95520.88
2023-04-13T13:55:32.843Z,95523.22
2023-04-13T13:58:00.713Z,95515.00
2023-04-13T14:00:28.554Z,95513.03
2023-04-13T14:02:56.516Z,95519.16
2023-04-13T14:05:24.576Z,95506.19
2023-04-13T14:07:52.380Z,95497.00
2023-04-13T14:10:20.448Z,95502.00
2023-04-13T14:12:50.928Z,95495.66
2023-04-13T14:15:19.534Z,95502.72
2023-04-13T14:17:55.909Z,95499.53
2023-04-13T14:20:35.258Z,95503.56
2023-04-13T14:23:03.611Z,95505.25
2023-04-13T14:25:31.574Z,95500.25
2023-04-13T14:28:00.807Z,95516.47
2023-04-13T14:30:28.949Z,95525.03
2023-04-13T14:32:57.324Z,95523.97
2023-04-13T14:35:25.134Z,95519.69
2023-04-13T14:37:53.430Z,95527.84
2023-04-13T14:40:22.569Z,95540.69
2023-04-13T14:42:53.008Z,95527.38
2023-04-13T14:45:22.236Z,95529.88
2023-04-13T14:47:50.149Z,95539.66
2023-04-13T14:50:18.683Z,95536.94
2023-04-13T14:52:47.085Z,95539.84
2023-04-13T14:55:15.532Z,95545.56
2023-04-13T14:57:43.378Z,95551.59
2023-04-13T15:00:15.808Z,95557.13
2023-04-13T15:02:45.040Z,95562.47
2023-04-13T15:05:13.132Z,95582.16
2023-04-13T15:07:41.000Z,95593.19
2023-04-13T15:10:09.915Z,95597.66
2023-04-13T15:12:37.768Z,95607.38
2023-04-13T15:15:06.983Z,95601.69
2023-04-13T15:17:34.812Z,95609.06
2023-04-13T15:20:07.723Z,95610.84
2023-04-13T15:22:36.857Z,95610.56
2023-04-13T15:25:05.031Z,95623.16
2023-04-13T15:27:32.794Z,95634.22
2023-04-13T15:30:03.080Z,95640.50
2023-04-13T15:32:31.409Z,95639.91
2023-04-13T15:34:59.214Z,95629.16
2023-04-13T15:37:28.397Z,95637.28
2023-04-13T15:39:56.196Z,95644.56
2023-04-13T15:42:23.943Z,95649.03
2023-04-13T15:44:51.756Z,95661.47
2023-04-13T15:47:19.567Z,95660.22
2023-04-13T15:49:47.277Z,95671.53
2023-04-13T15:52:15.006Z,95650.84
2023-04-13T15:54:44.045Z,95672.28
2023-04-13T15:57:12.342Z,95667.81
2023-04-13T15:59:40.138Z,95676.22
2023-04-13T16:02:08.513Z,95674.84
2023-04-13T16:04:37.059Z,95671.66
2023-04-13T16:07:12.937Z,95640.59
2023-04-13T16:09:44.947Z,95668.81
2023-04-13T16:12:12.797Z,95682.97
2023-04-13T16:14:41.914Z,95686.78
2023-04-13T16:17:10.415Z,95695.13
2023-04-13T16:19:39.796Z,95674.84
2023-04-13T16:22:09.811Z,95681.97
2023-04-13T16:24:38.370Z,95701.41
2023-04-13T16:27:08.635Z,95696.28
2023-04-13T16:29:36.579Z,95697.41
2023-04-13T16:32:04.327Z,95693.97
2023-04-13T16:34:32.121Z,95698.00
2023-04-13T16:36:59.925Z,95690.56
2023-04-13T16:39:27.777Z,95679.41
2023-04-13T16:41:55.539Z,95692.25
2023-04-13T16:44:25.035Z,95693.72
2023-04-13T16:46:52.920Z,95684.91
2023-04-13T16:49:20.767Z,95683.03
2023-04-13T16:51:49.279Z,95678.56
2023-04-13T16:54:18.154Z,95675.31
2023-04-13T16:56:46.224Z,95675.59
2023-04-13T16:59:14.174Z,95676.19
2023-04-13T17:01:43.306Z,95676.72
2023-04-13T17:04:11.922Z,95671.13
2023-04-13T17:06:40.196Z,95678.81
2023-04-13T17:09:08.200Z,95675.25
2023-04-13T17:11:36.189Z,95679.75
2023-04-13T17:14:03.914Z,95671.19
2023-04-13T17:16:31.825Z,95681.50
2023-04-13T17:19:01.568Z,95687.84
2023-04-13T17:21:29.982Z,95698.91
2023-04-13T17:23:57.733Z,95686.03
2023-04-13T17:26:26.099Z,95682.53
2023-04-13T17:28:53.863Z,95688.88
2023-04-13T17:31:22.001Z,95688.09
2023-04-13T17:33:51.118Z,95685.72
2023-04-13T17:36:22.000Z,95684.00
2023-04-13T17:38:49.843Z,95697.88
2023-04-13T17:41:18.156Z,95698.66
2023-04-13T17:43:45.916Z,95696.16
2023-04-13T17:46:13.725Z,95705.19
2023-04-13T17:48:42.060Z,95719.03
2023-04-13T17:51:11.609Z,95716.41
2023-04-13T17:53:40.930Z,95716.78
2023-04-13T17:56:14.683Z,95713.47
2023-04-13T17:58:42.511Z,95700.88
2023-04-13T18:01:11.422Z,95689.50
2023-04-13T18:03:40.007Z,95691.06
2023-04-13T18:06:08.073Z,95704.75
2023-04-13T18:08:36.003Z,95691.06
2023-04-13T18:11:05.259Z,95708.88
2023-04-13T18:13:34.305Z,95707.69
2023-04-13T18:16:02.415Z,95713.94
2023-04-13T18:18:30.752Z,95717.88
2023-04-13T18:20:58.529Z,95717.22
2023-04-13T18:23:26.295Z,95714.78
2023-04-13T18:25:54.040Z,95713.69
2023-04-13T18:28:23.229Z,95724.03
2023-04-13T18:30:51.014Z,95725.94
2023-04-13T18:33:18.868Z,95714.47
2023-04-13T18:35:46.970Z,95725.06
2023-04-13T18:38:14.734Z,95735.38
2023-04-13T18:40:42.540Z,95761.50
2023-04-13T18:43:10.485Z,95765.38
2023-04-13T18:45:39.740Z,95774.91
2023-04-13T18:48:09.452Z,95782.34
2023-04-13T18:50:37.909Z,95773.34
2023-04-13T18:53:05.980Z,95797.06
2023-04-13T18:55:33.907Z,95800.63
2023-04-13T18:58:01.745Z,95797.78
2023-04-13T19:00:29.773Z,95815.34
2023-04-13T19:02:59.072Z,95785.97
2023-04-13T19:05:27.815Z,95809.81
2023-04-13T19:07:58.737Z,95803.16
2023-04-13T19:10:28.088Z,95773.22
2023-04-13T19:12:56.536Z,95771.41
2023-04-13T19:15:25.095Z,95797.06
2023-04-13T19:17:53.414Z,95792.03
2023-04-13T19:20:25.074Z,95793.81
2023-04-13T19:22:52.761Z,95791.53
2023-04-13T19:25:20.779Z,95793.56
2023-04-13T19:27:50.097Z,95780.19
2023-04-13T19:30:19.505Z,95796.66
2023-04-13T19:32:48.930Z,95797.34
2023-04-13T19:35:16.930Z,95787.38
2023-04-13T19:37:46.184Z,95761.50
2023-04-13T19:40:15.214Z,95771.31
2023-04-13T19:42:44.476Z,95766.25
2023-04-13T19:45:13.290Z,95750.25
2023-04-13T19:47:42.285Z,95754.38
2023-04-13T19:50:12.464Z,95731.97
2023-04-13T19:52:41.325Z,95750.53
2023-04-13T19:55:12.059Z,95742.25
2023-04-13T19:57:42.945Z,95730.19
2023-04-13T20:00:19.014Z,95720.81
2023-04-13T20:02:48.001Z,95718.69
2023-04-13T20:05:16.002Z,95732.44
2023-04-13T20:07:43.830Z,95748.81
2023-04-13T20:10:13.545Z,95761.25
2023-04-13T20:12:41.299Z,95766.50
2023-04-13T20:15:09.434Z,95780.50
2023-04-13T20:17:37.241Z,95771.19
2023-04-13T20:20:07.352Z,95777.34
2023-04-13T20:22:35.350Z,95784.09
2023-04-13T20:25:03.476Z,95782.66
2023-04-13T20:27:34.259Z,95785.06
2023-04-13T20:30:02.159Z,95787.22
2023-04-13T20:32:29.988Z,95794.19
2023-04-13T20:34:57.822Z,95788.09
2023-04-13T20:37:25.608Z,95782.34
2023-04-13T20:39:54.078Z,95786.41
2023-04-13T20:42:22.413Z,95777.03
2023-04-13T20:44:57.437Z,95785.41
2023-04-13T20:47:26.599Z,95780.16
2023-04-13T20:49:57.271Z,95797.00
2023-04-13T20:52:25.852Z,95797.19
2023-04-13T20:54:54.565Z,95787.88
2023-04-13T20:57:22.470Z,95787.34
2023-04-13T20:59:52.690Z,95788.47
2023-04-13T21:02:21.219Z,95784.69
2023-04-13T21:04:49.318Z,95754.63
2023-04-13T21:07:17.143Z,95780.56
2023-04-13T21:09:45.708Z,95773.06
2023-04-13T21:12:13.503Z,95767.19
2023-04-13T21:14:41.298Z,95765.53
2023-04-13T21:17:10.521Z,95771.03
2023-04-13T21:19:38.296Z,95754.63
2023-04-13T21:22:06.115Z,95765.81
2023-04-13T21:24:33.847Z,95756.44
2023-04-13T21:27:02.411Z,95759.78
2023-04-13T21:29:30.133Z,95758.41
2023-04-13T21:31:58.178Z,95754.94
2023-04-13T21:34:27.373Z,95752.09
2023-04-13T21:36:55.486Z,95752.59
2023-04-13T21:39:23.465Z,95751.94
2023-04-13T21:41:51.258Z,95747.13
2023-04-13T21:44:29.301Z,95758.56
2023-04-13T21:46:58.456Z,95769.41
2023-04-13T21:49:28.164Z,95762.94
2023-04-13T21:51:56.024Z,95767.16
2023-04-13T21:54:23.821Z,95762.06
2023-04-13T21:56:51.737Z,95768.22
2023-04-13T21:59:19.572Z,95749.84
2023-04-13T22:01:47.658Z,95759.97
2023-04-13T22:04:15.822Z,95771.31
2023-04-13T22:06:45.000Z,95768.13
2023-04-13T22:09:13.441Z,95771.16
2023-04-13T22:11:41.415Z,95779.38
2023-04-13T22:14:09.272Z,95769.25
2023-04-13T22:16:37.087Z,95771.69
2023-04-13T22:19:04.930Z,95782.22
2023-04-13T22:21:35.438Z,95778.16
2023-04-13T22:24:04.876Z,95783.59
2023-04-13T22:26:32.665Z,95784.47
2023-04-13T22:29:00.673Z,95784.09
2023-04-13T22:31:28.684Z,95784.91
2023-04-13T22:33:57.113Z,95773.31
2023-04-13T22:36:25.337Z,95780.44
2023-04-13T22:38:54.443Z,95784.09
2023-04-13T22:41:23.642Z,95796.03
2023-04-13T22:43:51.346Z,95796.03
2023-04-13T22:46:19.471Z,95798.66
2023-04-13T22:48:48.205Z,95795.44
2023-04-13T22:51:16.309Z,95800.16
2023-04-13T22:53:44.210Z,95801.97
2023-04-13T22:56:11.913Z,95798.53
2023-04-13T22:58:40.970Z,95793.41
2023-04-13T23:01:08.686Z,95782.03
2023-04-13T23:03:36.621Z,95792.22
2023-04-13T23:06:05.927Z,95797.31
2023-04-13T23:08:33.658Z,95791.63
2023-04-13T23:11:09.251Z,95798.28
2023-04-13T23:13:37.162Z,95797.06
2023-04-13T23:16:07.188Z,95785.50
2023-04-13T23:18:35.099Z,95800.34
2023-04-13T23:21:10.556Z,95797.47
2023-04-13T23:23:38.831Z,95781.22
2023-04-13T23:26:07.349Z,95802.31
2023-04-13T23:28:35.198Z,95792.16
2023-04-13T23:31:09.025Z,95790.94
2023-04-13T23:33:36.943Z,95783.00
2023-04-13T23:36:05.367Z,95790.31
2023-04-13T23:38:33.825Z,95785.03
2023-04-13T23:41:01.652Z,95772.00
2023-04-13T23:43:29.419Z,95768.16
2023-04-13T23:45:58.913Z,95777.91
2023-04-13T23:48:28.265Z,95772.63
2023-04-13T23:50:57.297Z,95775.25
2023-04-13T23:53:25.153Z,95778.13
2023-04-13T23:55:52.824Z,95767.97
2023-04-13T23:58:20.510Z,95766.97
